sensor_id;sensor_type;location;lat;lon;timestamp;temperature;humidity
80192;SHT31;69513;51.990;5.704;2024-03-02T06:17:04;11.8;58.6
80192;SHT31;69513;51.990;5.704;2024-03-02T06:19:34;11.8;58.1
80192;SHT31;69513;51.990;5.704;2024-03-02T06:22:04;11.7;57.7
80192;SHT31;69513;51.990;5.704;2024-03-02T06:24:33;11.5;58.3
80192;SHT31;69513;51.990;5.704;2024-03-02T06:27:05;11.3;58.5
80192;SHT31;69513;51.990;5.704;2024-03-02T06:29:35;11.1;59.2
80192;SHT31;69513;51.990;5.704;2024-03-02T06:32:06;10.9;59.8
80192;SHT31;69513;51.990;5.704;2024-03-02T06:34:36;10.7;60.3
80192;SHT31;69513;51.990;5.704;2024-03-02T06:37:06;10.6;61.3
80192;SHT31;69513;51.990;5.704;2024-03-02T06:39:36;10.4;62.1
80192;SHT31;69513;51.990;5.704;2024-03-02T06:42:06;10.3;62.2
80192;SHT31;69513;51.990;5.704;2024-03-02T06:44:36;10.2;63.2
80192;SHT31;69513;51.990;5.704;2024-03-02T06:47:08;10.1;63.0
80192;SHT31;69513;51.990;5.704;2024-03-02T06:49:38;10.0;62.9
80192;SHT31;69513;51.990;5.704;2024-03-02T06:52:07;10.0;63.7
80192;SHT31;69513;51.990;5.704;2024-03-02T06:54:37;9.8;64.0
80192;SHT31;69513;51.990;5.704;2024-03-02T06:57:06;9.8;63.8
80192;SHT31;69513;51.990;5.704;2024-03-02T06:59:36;9.7;64.4
80192;SHT31;69513;51.990;5.704;2024-03-02T07:02:05;9.7;64.4
80192;SHT31;69513;51.990;5.704;2024-03-02T07:04:36;9.6;64.8
80192;SHT31;69513;51.990;5.704;2024-03-02T07:07:07;9.6;64.8
80192;SHT31;69513;51.990;5.704;2024-03-02T07:09:38;9.6;65.4
80192;SHT31;69513;51.990;5.704;2024-03-02T07:12:10;9.5;65.2
80192;SHT31;69513;51.990;5.704;2024-03-02T07:14:39;9.5;65.6
80192;SHT31;69513;51.990;5.704;2024-03-02T07:17:29;9.5;65.8
80192;SHT31;69513;51.990;5.704;2024-03-02T07:19:59;9.5;65.9
80192;SHT31;69513;51.990;5.704;2024-03-02T07:22:29;9.4;66.0
80192;SHT31;69513;51.990;5.704;2024-03-02T07:25:01;9.4;66.0
80192;SHT31;69513;51.990;5.704;2024-03-02T07:27:34;9.4;65.9
80192;SHT31;69513;51.990;5.704;2024-03-02T07:30:06;9.4;65.9
80192;SHT31;69513;51.990;5.704;2024-03-02T07:32:38;9.4;65.9
80192;SHT31;69513;51.990;5.704;2024-03-02T07:35:14;9.4;66.3
80192;SHT31;69513;51.990;5.704;2024-03-02T07:37:44;9.4;66.7
80192;SHT31;69513;51.990;5.704;2024-03-02T07:40:17;9.4;66.9
80192;SHT31;69513;51.990;5.704;2024-03-02T07:42:48;9.3;66.8
80192;SHT31;69513;51.990;5.704;2024-03-02T07:45:17;9.3;66.7
80192;SHT31;69513;51.990;5.704;2024-03-02T07:47:48;9.3;67.0
80192;SHT31;69513;51.990;5.704;2024-03-02T07:50:18;9.4;66.9
80192;SHT31;69513;51.990;5.704;2024-03-02T07:52:48;9.4;67.4
80192;SHT31;69513;51.990;5.704;2024-03-02T07:55:17;9.4;67.7
80192;SHT31;69513;51.990;5.704;2024-03-02T07:57:47;9.4;67.7
80192;SHT31;69513;51.990;5.704;2024-03-02T08:00:21;9.4;68.1
80192;SHT31;69513;51.990;5.704;2024-03-02T08:02:54;9.4;68.0
80192;SHT31;69513;51.990;5.704;2024-03-02T08:05:25;9.5;67.9
80192;SHT31;69513;51.990;5.704;2024-03-02T08:07:55;9.5;66.7
80192;SHT31;69513;51.990;5.704;2024-03-02T08:10:25;9.5;67.3
80192;SHT31;69513;51.990;5.704;2024-03-02T08:12:55;9.6;67.4
80192;SHT31;69513;51.990;5.704;2024-03-02T08:15:24;9.6;66.6
80192;SHT31;69513;51.990;5.704;2024-03-02T08:17:54;9.6;66.6
80192;SHT31;69513;51.990;5.704;2024-03-02T08:20:24;9.6;66.9
80192;SHT31;69513;51.990;5.704;2024-03-02T08:22:54;9.6;67.0
80192;SHT31;69513;51.990;5.704;2024-03-02T08:25:24;9.7;67.1
80192;SHT31;69513;51.990;5.704;2024-03-02T08:27:54;9.7;67.0
80192;SHT31;69513;51.990;5.704;2024-03-02T08:30:24;9.7;67.1
80192;SHT31;69513;51.990;5.704;2024-03-02T08:32:56;9.7;66.7
80192;SHT31;69513;51.990;5.704;2024-03-02T08:35:26;9.7;66.6
80192;SHT31;69513;51.990;5.704;2024-03-02T08:37:56;9.7;66.7
80192;SHT31;69513;51.990;5.704;2024-03-02T08:40:28;9.7;65.7
80192;SHT31;69513;51.990;5.704;2024-03-02T08:42:58;9.8;65.3
80192;SHT31;69513;51.990;5.704;2024-03-02T08:45:29;9.8;65.9
80192;SHT31;69513;51.990;5.704;2024-03-02T08:47:58;9.8;65.7
80192;SHT31;69513;51.990;5.704;2024-03-02T08:50:28;9.8;65.7
80192;SHT31;69513;51.990;5.704;2024-03-02T08:52:58;9.8;65.7
80192;SHT31;69513;51.990;5.704;2024-03-02T08:55:32;9.8;65.8
80192;SHT31;69513;51.990;5.704;2024-03-02T08:58:02;9.8;65.8
80192;SHT31;69513;51.990;5.704;2024-03-02T09:00:33;9.8;65.1
80192;SHT31;69513;51.990;5.704;2024-03-02T09:03:04;9.8;65.5
80192;SHT31;69513;51.990;5.704;2024-03-02T09:05:34;9.8;64.9
80192;SHT31;69513;51.990;5.704;2024-03-02T09:08:05;9.8;65.1
80192;SHT31;69513;51.990;5.704;2024-03-02T09:10:36;9.8;65.4
80192;SHT31;69513;51.990;5.704;2024-03-02T09:13:08;9.8;63.8
80192;SHT31;69513;51.990;5.704;2024-03-02T09:15:38;9.8;63.8
80192;SHT31;69513;51.990;5.704;2024-03-02T09:18:08;9.8;63.3
80192;SHT31;69513;51.990;5.704;2024-03-02T09:20:37;9.8;62.9
80192;SHT31;69513;51.990;5.704;2024-03-02T09:23:08;9.9;63.8
80192;SHT31;69513;51.990;5.704;2024-03-02T09:25:37;9.9;63.8
80192;SHT31;69513;51.990;5.704;2024-03-02T09:28:08;9.9;64.1
80192;SHT31;69513;51.990;5.704;2024-03-02T09:30:37;9.9;63.8
80192;SHT31;69513;51.990;5.704;2024-03-02T09:33:07;9.9;64.3
80192;SHT31;69513;51.990;5.704;2024-03-02T09:35:36;10.0;64.4
80192;SHT31;69513;51.990;5.704;2024-03-02T09:38:06;10.0;64.1
80192;SHT31;69513;51.990;5.704;2024-03-02T09:40:36;10.0;63.4
80192;SHT31;69513;51.990;5.704;2024-03-02T09:43:07;10.1;63.8
80192;SHT31;69513;51.990;5.704;2024-03-02T09:45:38;10.1;64.1
80192;SHT31;69513;51.990;5.704;2024-03-02T09:48:09;10.1;63.4
80192;SHT31;69513;51.990;5.704;2024-03-02T09:50:39;10.2;63.1
80192;SHT31;69513;51.990;5.704;2024-03-02T09:53:10;10.2;64.0
80192;SHT31;69513;51.990;5.704;2024-03-02T09:55:46;10.2;63.3
80192;SHT31;69513;51.990;5.704;2024-03-02T09:58:18;10.3;63.3
80192;SHT31;69513;51.990;5.704;2024-03-02T10:00:50;10.3;63.0
80192;SHT31;69513;51.990;5.704;2024-03-02T10:03:23;10.4;63.7
80192;SHT31;69513;51.990;5.704;2024-03-02T10:05:56;10.4;63.3
80192;SHT31;69513;51.990;5.704;2024-03-02T10:08:44;10.5;63.7
80192;SHT31;69513;51.990;5.704;2024-03-02T10:11:30;10.5;63.3
80192;SHT31;69513;51.990;5.704;2024-03-02T10:14:10;10.6;63.1
80192;SHT31;69513;51.990;5.704;2024-03-02T10:16:44;10.6;62.6
80192;SHT31;69513;51.990;5.704;2024-03-02T10:19:18;10.7;62.8
80192;SHT31;69513;51.990;5.704;2024-03-02T10:21:51;10.8;62.2
80192;SHT31;69513;51.990;5.704;2024-03-02T10:24:24;10.8;62.4
80192;SHT31;69513;51.990;5.704;2024-03-02T10:26:56;10.9;60.6
80192;SHT31;69513;51.990;5.704;2024-03-02T10:29:29;10.9;60.1
80192;SHT31;69513;51.990;5.704;2024-03-02T10:32:03;10.9;60.3
80192;SHT31;69513;51.990;5.704;2024-03-02T10:34:36;11.0;60.1
80192;SHT31;69513;51.990;5.704;2024-03-02T10:37:08;11.0;59.7
80192;SHT31;69513;51.990;5.704;2024-03-02T10:39:41;11.1;59.6
80192;SHT31;69513;51.990;5.704;2024-03-02T10:42:12;11.1;58.2
80192;SHT31;69513;51.990;5.704;2024-03-02T10:44:46;11.1;58.9
80192;SHT31;69513;51.990;5.704;2024-03-02T10:47:21;11.2;59.5
80192;SHT31;69513;51.990;5.704;2024-03-02T10:49:58;11.2;59.0
80192;SHT31;69513;51.990;5.704;2024-03-02T10:52:29;11.2;57.9
80192;SHT31;69513;51.990;5.704;2024-03-02T10:55:00;11.3;58.7
80192;SHT31;69513;51.990;5.704;2024-03-02T10:57:45;11.3;59.4
80192;SHT31;69513;51.990;5.704;2024-03-02T11:00:19;11.4;57.4
80192;SHT31;69513;51.990;5.704;2024-03-02T11:02:57;11.4;58.8
80192;SHT31;69513;51.990;5.704;2024-03-02T11:05:33;11.5;57.4
80192;SHT31;69513;51.990;5.704;2024-03-02T11:08:13;11.6;57.7
80192;SHT31;69513;51.990;5.704;2024-03-02T11:10:51;11.6;58.9
80192;SHT31;69513;51.990;5.704;2024-03-02T11:13:31;11.7;57.6
80192;SHT31;69513;51.990;5.704;2024-03-02T11:16:15;11.9;56.9
80192;SHT31;69513;51.990;5.704;2024-03-02T11:18:43;12.0;56.4
80192;SHT31;69513;51.990;5.704;2024-03-02T11:21:18;12.1;56.0
80192;SHT31;69513;51.990;5.704;2024-03-02T11:23:51;12.1;55.6
80192;SHT31;69513;51.990;5.704;2024-03-02T11:26:25;12.2;54.2
80192;SHT31;69513;51.990;5.704;2024-03-02T11:28:56;12.2;55.2
80192;SHT31;69513;51.990;5.704;2024-03-02T11:31:59;12.3;54.7
80192;SHT31;69513;51.990;5.704;2024-03-02T11:34:32;12.3;54.2
80192;SHT31;69513;51.990;5.704;2024-03-02T11:37:04;12.3;55.0
80192;SHT31;69513;51.990;5.704;2024-03-02T11:39:35;12.4;54.1
80192;SHT31;69513;51.990;5.704;2024-03-02T11:42:09;12.4;54.2
80192;SHT31;69513;51.990;5.704;2024-03-02T11:44:42;12.4;54.5
80192;SHT31;69513;51.990;5.704;2024-03-02T11:47:17;12.4;54.2
80192;SHT31;69513;51.990;5.704;2024-03-02T11:49:50;12.5;54.7
80192;SHT31;69513;51.990;5.704;2024-03-02T11:52:25;12.5;54.5
80192;SHT31;69513;51.990;5.704;2024-03-02T11:54:57;12.5;54.9
80192;SHT31;69513;51.990;5.704;2024-03-02T11:57:28;12.6;55.7
80192;SHT31;69513;51.990;5.704;2024-03-02T11:59:59;12.6;55.0
80192;SHT31;69513;51.990;5.704;2024-03-02T12:02:31;12.7;55.2
80192;SHT31;69513;51.990;5.704;2024-03-02T12:05:03;12.7;54.1
80192;SHT31;69513;51.990;5.704;2024-03-02T12:07:34;12.7;54.0
80192;SHT31;69513;51.990;5.704;2024-03-02T12:10:07;12.8;54.0
80192;SHT31;69513;51.990;5.704;2024-03-02T12:12:38;12.8;53.7
80192;SHT31;69513;51.990;5.704;2024-03-02T12:15:09;12.8;53.2
80192;SHT31;69513;51.990;5.704;2024-03-02T12:17:38;12.9;52.9
80192;SHT31;69513;51.990;5.704;2024-03-02T12:20:12;12.9;53.8
80192;SHT31;69513;51.990;5.704;2024-03-02T12:22:43;13.0;53.4
80192;SHT31;69513;51.990;5.704;2024-03-02T12:25:16;13.0;52.0
80192;SHT31;69513;51.990;5.704;2024-03-02T12:27:49;13.1;52.6
80192;SHT31;69513;51.990;5.704;2024-03-02T12:30:20;13.2;53.0
80192;SHT31;69513;51.990;5.704;2024-03-02T12:32:50;13.2;51.7
80192;SHT31;69513;51.990;5.704;2024-03-02T12:35:20;13.3;50.9
80192;SHT31;69513;51.990;5.704;2024-03-02T12:37:53;13.4;51.3
80192;SHT31;69513;51.990;5.704;2024-03-02T12:40:23;13.5;53.2
80192;SHT31;69513;51.990;5.704;2024-03-02T12:42:53;13.6;52.5
80192;SHT31;69513;51.990;5.704;2024-03-02T12:45:22;13.7;53.2
80192;SHT31;69513;51.990;5.704;2024-03-02T12:47:53;13.8;52.0
80192;SHT31;69513;51.990;5.704;2024-03-02T12:50:23;13.9;50.1
80192;SHT31;69513;51.990;5.704;2024-03-02T12:52:55;13.9;48.8
80192;SHT31;69513;51.990;5.704;2024-03-02T12:55:26;14.0;49.7
80192;SHT31;69513;51.990;5.704;2024-03-02T12:57:57;14.1;49.9
80192;SHT31;69513;51.990;5.704;2024-03-02T13:00:31;14.1;48.6
80192;SHT31;69513;51.990;5.704;2024-03-02T13:03:03;14.1;50.2
80192;SHT31;69513;51.990;5.704;2024-03-02T13:05:35;14.2;50.1
80192;SHT31;69513;51.990;5.704;2024-03-02T13:08:07;14.2;48.6
80192;SHT31;69513;51.990;5.704;2024-03-02T13:10:38;14.3;49.6
80192;SHT31;69513;51.990;5.704;2024-03-02T13:13:09;14.3;49.8
80192;SHT31;69513;51.990;5.704;2024-03-02T13:15:39;14.3;49.4
80192;SHT31;69513;51.990;5.704;2024-03-02T13:18:11;14.4;49.2
80192;SHT31;69513;51.990;5.704;2024-03-02T13:20:41;14.4;49.2
80192;SHT31;69513;51.990;5.704;2024-03-02T13:23:11;14.4;49.0
80192;SHT31;69513;51.990;5.704;2024-03-02T13:25:44;14.5;49.0
80192;SHT31;69513;51.990;5.704;2024-03-02T13:28:15;14.5;49.6
80192;SHT31;69513;51.990;5.704;2024-03-02T13:30:45;14.6;50.7
80192;SHT31;69513;51.990;5.704;2024-03-02T13:33:14;14.6;50.2
80192;SHT31;69513;51.990;5.704;2024-03-02T13:35:49;14.7;49.4
80192;SHT31;69513;51.990;5.704;2024-03-02T13:38:21;14.8;47.5
80192;SHT31;69513;51.990;5.704;2024-03-02T13:40:51;14.8;48.6
80192;SHT31;69513;51.990;5.704;2024-03-02T13:43:20;14.9;48.1
80192;SHT31;69513;51.990;5.704;2024-03-02T13:45:51;15.0;48.6
80192;SHT31;69513;51.990;5.704;2024-03-02T13:48:23;15.1;48.0
80192;SHT31;69513;51.990;5.704;2024-03-02T13:50:54;15.2;47.7
80192;SHT31;69513;51.990;5.704;2024-03-02T13:53:24;15.2;47.0
80192;SHT31;69513;51.990;5.704;2024-03-02T13:55:53;15.3;46.8
80192;SHT31;69513;51.990;5.704;2024-03-02T13:58:23;15.3;48.4
80192;SHT31;69513;51.990;5.704;2024-03-02T14:00:53;15.3;48.3
80192;SHT31;69513;51.990;5.704;2024-03-02T14:03:24;15.3;47.7
80192;SHT31;69513;51.990;5.704;2024-03-02T14:05:58;15.3;47.9
80192;SHT31;69513;51.990;5.704;2024-03-02T14:08:30;15.3;48.7
80192;SHT31;69513;51.990;5.704;2024-03-02T14:11:02;15.3;48.4
80192;SHT31;69513;51.990;5.704;2024-03-02T14:13:32;15.3;47.6
80192;SHT31;69513;51.990;5.704;2024-03-02T14:16:04;15.2;47.8
80192;SHT31;69513;51.990;5.704;2024-03-02T14:18:36;15.2;48.2
80192;SHT31;69513;51.990;5.704;2024-03-02T14:21:06;15.2;48.5
80192;SHT31;69513;51.990;5.704;2024-03-02T14:23:35;15.1;46.9
80192;SHT31;69513;51.990;5.704;2024-03-02T14:26:07;15.1;47.2
80192;SHT31;69513;51.990;5.704;2024-03-02T14:28:36;15.1;47.7
80192;SHT31;69513;51.990;5.704;2024-03-02T14:31:07;15.1;47.6
80192;SHT31;69513;51.990;5.704;2024-03-02T14:33:37;15.0;47.6
80192;SHT31;69513;51.990;5.704;2024-03-02T14:36:09;15.0;48.4
80192;SHT31;69513;51.990;5.704;2024-03-02T14:38:40;15.0;48.8
80192;SHT31;69513;51.990;5.704;2024-03-02T14:41:09;15.1;47.8
80192;SHT31;69513;51.990;5.704;2024-03-02T14:43:40;15.1;47.7
80192;SHT31;69513;51.990;5.704;2024-03-02T14:46:12;15.2;48.1
80192;SHT31;69513;51.990;5.704;2024-03-02T14:48:44;15.3;47.6
80192;SHT31;69513;51.990;5.704;2024-03-02T14:51:17;15.5;47.2
80192;SHT31;69513;51.990;5.704;2024-03-02T14:53:46;15.6;46.7
80192;SHT31;69513;51.990;5.704;2024-03-02T14:56:17;15.6;46.0
80192;SHT31;69513;51.990;5.704;2024-03-02T14:58:47;15.6;45.7
80192;SHT31;69513;51.990;5.704;2024-03-02T15:01:20;15.6;45.4
80192;SHT31;69513;51.990;5.704;2024-03-02T15:03:52;15.6;45.6
80192;SHT31;69513;51.990;5.704;2024-03-02T15:06:24;15.6;45.9
80192;SHT31;69513;51.990;5.704;2024-03-02T15:08:53;15.6;46.0
80192;SHT31;69513;51.990;5.704;2024-03-02T15:11:27;15.6;46.6
80192;SHT31;69513;51.990;5.704;2024-03-02T15:13:57;15.6;46.7
80192;SHT31;69513;51.990;5.704;2024-03-02T15:16:27;15.6;47.3
80192;SHT31;69513;51.990;5.704;2024-03-02T15:18:57;15.6;47.7
80192;SHT31;69513;51.990;5.704;2024-03-02T15:21:27;15.6;47.9
80192;SHT31;69513;51.990;5.704;2024-03-02T15:23:56;15.6;47.5
80192;SHT31;69513;51.990;5.704;2024-03-02T15:26:26;15.6;48.7
80192;SHT31;69513;51.990;5.704;2024-03-02T15:28:58;15.6;48.6
80192;SHT31;69513;51.990;5.704;2024-03-02T15:31:29;15.6;48.4
80192;SHT31;69513;51.990;5.704;2024-03-02T15:33:58;15.5;48.3
80192;SHT31;69513;51.990;5.704;2024-03-02T15:36:28;15.5;48.5
80192;SHT31;69513;51.990;5.704;2024-03-02T15:38:58;15.4;48.9
80192;SHT31;69513;51.990;5.704;2024-03-02T15:41:29;15.4;49.5
80192;SHT31;69513;51.990;5.704;2024-03-02T15:43:58;15.4;50.0
80192;SHT31;69513;51.990;5.704;2024-03-02T15:46:29;15.3;49.9
80192;SHT31;69513;51.990;5.704;2024-03-02T15:48:59;15.3;50.5
80192;SHT31;69513;51.990;5.704;2024-03-02T15:51:34;15.2;50.1
80192;SHT31;69513;51.990;5.704;2024-03-02T15:54:09;15.2;50.5
80192;SHT31;69513;51.990;5.704;2024-03-02T15:56:40;15.1;51.1
80192;SHT31;69513;51.990;5.704;2024-03-02T15:59:11;15.1;51.3
80192;SHT31;69513;51.990;5.704;2024-03-02T16:01:40;15.1;51.5
80192;SHT31;69513;51.990;5.704;2024-03-02T16:04:11;15.1;51.5
80192;SHT31;69513;51.990;5.704;2024-03-02T16:06:41;15.0;51.5
80192;SHT31;69513;51.990;5.704;2024-03-02T16:09:10;15.0;51.9
80192;SHT31;69513;51.990;5.704;2024-03-02T16:11:41;15.0;51.2
80192;SHT31;69513;51.990;5.704;2024-03-02T16:14:10;15.0;51.9
80192;SHT31;69513;51.990;5.704;2024-03-02T16:16:42;14.9;52.1
80192;SHT31;69513;51.990;5.704;2024-03-02T16:19:12;14.9;52.3
80192;SHT31;69513;51.990;5.704;2024-03-02T16:21:42;14.9;52.5
80192;SHT31;69513;51.990;5.704;2024-03-02T16:24:11;14.9;52.4
80192;SHT31;69513;51.990;5.704;2024-03-02T16:26:41;14.9;51.8
80192;SHT31;69513;51.990;5.704;2024-03-02T16:29:10;14.8;52.0
80192;SHT31;69513;51.990;5.704;2024-03-02T16:31:39;14.8;52.2
80192;SHT31;69513;51.990;5.704;2024-03-02T16:34:10;14.8;52.6
80192;SHT31;69513;51.990;5.704;2024-03-02T16:36:40;14.7;52.5
80192;SHT31;69513;51.990;5.704;2024-03-02T16:39:12;14.7;52.6
80192;SHT31;69513;51.990;5.704;2024-03-02T16:41:41;14.7;53.2
80192;SHT31;69513;51.990;5.704;2024-03-02T16:44:14;14.6;53.6
80192;SHT31;69513;51.990;5.704;2024-03-02T16:46:45;14.6;53.5
80192;SHT31;69513;51.990;5.704;2024-03-02T16:49:16;14.5;53.5
80192;SHT31;69513;51.990;5.704;2024-03-02T16:51:48;14.5;53.6
80192;SHT31;69513;51.990;5.704;2024-03-02T16:54:17;14.4;53.9
80192;SHT31;69513;51.990;5.704;2024-03-02T16:56:46;14.4;54.3
80192;SHT31;69513;51.990;5.704;2024-03-02T16:59:16;14.4;54.3
80192;SHT31;69513;51.990;5.704;2024-03-02T17:01:45;14.3;54.8
80192;SHT31;69513;51.990;5.704;2024-03-02T17:04:15;14.3;54.9
80192;SHT31;69513;51.990;5.704;2024-03-02T17:06:44;14.3;55.0
80192;SHT31;69513;51.990;5.704;2024-03-02T17:09:15;14.2;54.9
80192;SHT31;69513;51.990;5.704;2024-03-02T17:11:44;14.2;54.8
80192;SHT31;69513;51.990;5.704;2024-03-02T17:14:13;14.1;55.2
80192;SHT31;69513;51.990;5.704;2024-03-02T17:16:43;14.1;55.2
80192;SHT31;69513;51.990;5.704;2024-03-02T17:19:15;14.1;55.2
80192;SHT31;69513;51.990;5.704;2024-03-02T17:21:44;14.1;55.4
80192;SHT31;69513;51.990;5.704;2024-03-02T17:24:14;14.0;55.4
80192;SHT31;69513;51.990;5.704;2024-03-02T17:26:44;14.0;55.6
80192;SHT31;69513;51.990;5.704;2024-03-02T17:29:15;14.0;56.0
80192;SHT31;69513;51.990;5.704;2024-03-02T17:31:45;13.9;56.1
80192;SHT31;69513;51.990;5.704;2024-03-02T17:34:14;13.9;56.3
80192;SHT31;69513;51.990;5.704;2024-03-02T17:36:44;13.9;56.4
80192;SHT31;69513;51.990;5.704;2024-03-02T17:39:14;13.9;56.5
80192;SHT31;69513;51.990;5.704;2024-03-02T17:41:43;13.9;56.6
80192;SHT31;69513;51.990;5.704;2024-03-02T17:44:12;13.8;56.5
80192;SHT31;69513;51.990;5.704;2024-03-02T17:46:42;13.8;57.1
80192;SHT31;69513;51.990;5.704;2024-03-02T17:49:12;13.8;57.1
80192;SHT31;69513;51.990;5.704;2024-03-02T17:51:42;13.8;57.2
80192;SHT31;69513;51.990;5.704;2024-03-02T17:54:12;13.8;57.2
80192;SHT31;69513;51.990;5.704;2024-03-02T17:56:41;13.8;57.2
80192;SHT31;69513;51.990;5.704;2024-03-02T17:59:11;13.8;56.8
80192;SHT31;69513;51.990;5.704;2024-03-02T18:01:40;13.8;56.7
80192;SHT31;69513;51.990;5.704;2024-03-02T18:04:10;13.8;57.0
80192;SHT31;69513;51.990;5.704;2024-03-02T18:06:40;13.8;57.1
80192;SHT31;69513;51.990;5.704;2024-03-02T18:09:10;13.8;56.9
80192;SHT31;69513;51.990;5.704;2024-03-02T18:11:39;13.7;56.9
80192;SHT31;69513;51.990;5.704;2024-03-02T18:14:10;13.7;57.0
80192;SHT31;69513;51.990;5.704;2024-03-02T18:16:39;13.7;56.9
80192;SHT31;69513;51.990;5.704;2024-03-02T18:19:10;13.7;57.1
80192;SHT31;69513;51.990;5.704;2024-03-02T18:21:40;13.7;57.1
80192;SHT31;69513;51.990;5.704;2024-03-02T18:24:10;13.7;57.3
80192;SHT31;69513;51.990;5.704;2024-03-02T18:26:40;13.7;56.9
80192;SHT31;69513;51.990;5.704;2024-03-02T18:29:11;13.7;57.3
80192;SHT31;69513;51.990;5.704;2024-03-02T18:31:44;13.7;57.1
80192;SHT31;69513;51.990;5.704;2024-03-02T18:34:13;13.6;57.2
80192;SHT31;69513;51.990;5.704;2024-03-02T18:36:44;13.6;56.9
80192;SHT31;69513;51.990;5.704;2024-03-02T18:39:13;13.6;57.0
80192;SHT31;69513;51.990;5.704;2024-03-02T18:41:42;13.6;56.9
80192;SHT31;69513;51.990;5.704;2024-03-02T18:44:12;13.6;57.1
80192;SHT31;69513;51.990;5.704;2024-03-02T18:46:42;13.6;57.4
80192;SHT31;69513;51.990;5.704;2024-03-02T18:49:12;13.6;57.4
80192;SHT31;69513;51.990;5.704;2024-03-02T18:51:43;13.6;57.1
80192;SHT31;69513;51.990;5.704;2024-03-02T18:54:13;13.6;57.0
80192;SHT31;69513;51.990;5.704;2024-03-02T18:56:44;13.6;56.7
80192;SHT31;69513;51.990;5.704;2024-03-02T18:59:13;13.6;56.9
80192;SHT31;69513;51.990;5.704;2024-03-02T19:01:44;13.6;56.8
80192;SHT31;69513;51.990;5.704;2024-03-02T19:04:13;13.6;57.0
80192;SHT31;69513;51.990;5.704;2024-03-02T19:06:44;13.6;57.0
80192;SHT31;69513;51.990;5.704;2024-03-02T19:09:13;13.6;56.7
80192;SHT31;69513;51.990;5.704;2024-03-02T19:11:43;13.6;56.7
80192;SHT31;69513;51.990;5.704;2024-03-02T19:14:12;13.6;56.8
80192;SHT31;69513;51.990;5.704;2024-03-02T19:16:42;13.6;56.4
80192;SHT31;69513;51.990;5.704;2024-03-02T19:19:12;13.6;56.3
80192;SHT31;69513;51.990;5.704;2024-03-02T19:21:43;13.6;56.1
80192;SHT31;69513;51.990;5.704;2024-03-02T19:24:13;13.6;56.5
80192;SHT31;69513;51.990;5.704;2024-03-02T19:26:43;13.6;56.2
80192;SHT31;69513;51.990;5.704;2024-03-02T19:29:13;13.5;56.5
80192;SHT31;69513;51.990;5.704;2024-03-02T19:31:43;13.5;56.0
80192;SHT31;69513;51.990;5.704;2024-03-02T19:34:12;13.5;56.3
80192;SHT31;69513;51.990;5.704;2024-03-02T19:36:43;13.4;56.1
80192;SHT31;69513;51.990;5.704;2024-03-02T19:39:13;13.4;56.2
80192;SHT31;69513;51.990;5.704;2024-03-02T19:41:45;13.4;56.4
80192;SHT31;69513;51.990;5.704;2024-03-02T19:44:14;13.4;56.3
80192;SHT31;69513;51.990;5.704;2024-03-02T19:46:45;13.3;56.6
80192;SHT31;69513;51.990;5.704;2024-03-02T19:49:17;13.3;56.7
80192;SHT31;69513;51.990;5.704;2024-03-02T19:51:50;13.3;56.8
80192;SHT31;69513;51.990;5.704;2024-03-02T19:54:20;13.3;56.8
80192;SHT31;69513;51.990;5.704;2024-03-02T19:56:49;13.3;56.7
80192;SHT31;69513;51.990;5.704;2024-03-02T19:59:20;13.2;56.5
80192;SHT31;69513;51.990;5.704;2024-03-02T20:01:49;13.2;56.7
80192;SHT31;69513;51.990;5.704;2024-03-02T20:04:19;13.2;56.7
80192;SHT31;69513;51.990;5.704;2024-03-02T20:06:55;13.2;56.9
80192;SHT31;69513;51.990;5.704;2024-03-02T20:09:24;13.2;56.7
80192;SHT31;69513;51.990;5.704;2024-03-02T20:11:54;13.2;56.8
80192;SHT31;69513;51.990;5.704;2024-03-02T20:14:26;13.1;57.1
80192;SHT31;69513;51.990;5.704;2024-03-02T20:16:56;13.1;57.4
80192;SHT31;69513;51.990;5.704;2024-03-02T20:19:25;13.1;57.1
80192;SHT31;69513;51.990;5.704;2024-03-02T20:21:55;13.1;57.1
80192;SHT31;69513;51.990;5.704;2024-03-02T20:24:27;13.1;57.1
80192;SHT31;69513;51.990;5.704;2024-03-02T20:26:57;13.0;57.1
80192;SHT31;69513;51.990;5.704;2024-03-02T20:29:26;13.0;57.4
80192;SHT31;69513;51.990;5.704;2024-03-02T20:31:57;13.0;57.6
80192;SHT31;69513;51.990;5.704;2024-03-02T20:34:27;12.9;57.5
80192;SHT31;69513;51.990;5.704;2024-03-02T20:36:56;12.9;58.0
80192;SHT31;69513;51.990;5.704;2024-03-02T20:39:29;12.9;57.8
80192;SHT31;69513;51.990;5.704;2024-03-02T20:42:00;12.9;57.7
80192;SHT31;69513;51.990;5.704;2024-03-02T20:44:30;12.9;57.8
80192;SHT31;69513;51.990;5.704;2024-03-02T20:47:00;12.9;58.1
80192;SHT31;69513;51.990;5.704;2024-03-02T20:49:30;12.8;58.1
80192;SHT31;69513;51.990;5.704;2024-03-02T20:52:01;12.8;58.3
80192;SHT31;69513;51.990;5.704;2024-03-02T20:54:30;12.8;58.4
80192;SHT31;69513;51.990;5.704;2024-03-02T20:57:00;12.8;58.4
80192;SHT31;69513;51.990;5.704;2024-03-02T20:59:34;12.7;58.4
80192;SHT31;69513;51.990;5.704;2024-03-02T21:02:04;12.7;58.4
80192;SHT31;69513;51.990;5.704;2024-03-02T21:04:33;12.7;58.5
80192;SHT31;69513;51.990;5.704;2024-03-02T21:07:04;12.6;58.2
80192;SHT31;69513;51.990;5.704;2024-03-02T21:09:34;12.6;58.1
80192;SHT31;69513;51.990;5.704;2024-03-02T21:12:05;12.6;58.3
80192;SHT31;69513;51.990;5.704;2024-03-02T21:14:36;12.6;58.5
80192;SHT31;69513;51.990;5.704;2024-03-02T21:17:09;12.6;58.6
